createdAt,value
2022-09-30T00:02:19.516Z,9.20
2022-09-30T00:04:49.211Z,9.15
2022-09-30T00:07:18.195Z,9.10
2022-09-30T00:09:48.067Z,9.02
2022-09-30T00:12:17.494Z,9.01
2022-09-30T00:14:47.174Z,8.99
2022-09-30T00:17:16.444Z,9.00
2022-09-30T00:19:46.912Z,8.82
2022-09-30T00:22:22.339Z,8.90
2022-09-30T00:24:51.955Z,8.93
2022-09-30T00:27:21.379Z,8.66
2022-09-30T00:29:51.161Z,8.57
2022-09-30T00:32:20.555Z,8.85
2022-09-30T00:34:50.856Z,8.33
2022-09-30T00:37:20.152Z,8.87
2022-09-30T00:39:53.624Z,8.93
2022-09-30T00:42:25.677Z,8.90
2022-09-30T00:44:55.220Z,8.90
2022-09-30T00:47:41.316Z,8.19
2022-09-30T00:50:31.027Z,8.85
2022-09-30T00:53:04.991Z,8.88
2022-09-30T00:55:37.868Z,8.79
2022-09-30T00:58:09.390Z,7.90
2022-09-30T01:00:36.102Z,7.91
2022-09-30T01:03:06.628Z,8.20
2022-09-30T01:05:36.950Z,8.25
2022-09-30T01:08:05.926Z,8.59
2022-09-30T01:10:32.105Z,8.58
2022-09-30T01:13:02.038Z,8.72
2022-09-30T01:15:46.118Z,8.86
2022-09-30T01:18:31.010Z,8.71
2022-09-30T01:21:25.113Z,8.76
2022-09-30T01:24:18.230Z,8.68
2022-09-30T01:27:00.189Z,8.49
2022-09-30T01:29:48.198Z,8.67
2022-09-30T01:32:26.558Z,8.86
2022-09-30T01:35:15.664Z,8.81
2022-09-30T01:38:01.037Z,8.79
2022-09-30T01:40:53.599Z,7.34
2022-09-30T01:43:35.862Z,8.74
2022-09-30T01:46:18.954Z,8.78
2022-09-30T01:48:55.353Z,8.77
2022-09-30T01:51:41.013Z,7.55
2022-09-30T01:54:17.048Z,8.25
2022-09-30T01:56:57.202Z,8.46
2022-09-30T01:59:33.277Z,8.19
2022-09-30T02:02:24.756Z,8.53
2022-09-30T02:05:01.315Z,8.57
2022-09-30T02:07:39.799Z,8.67
2022-09-30T02:10:17.402Z,7.63
2022-09-30T02:12:51.458Z,8.84
2022-09-30T02:15:40.894Z,7.99
2022-09-30T02:18:19.096Z,8.69
2022-09-30T02:20:51.395Z,8.59
2022-09-30T02:23:31.587Z,8.33
2022-09-30T02:26:06.501Z,8.62
2022-09-30T02:28:40.423Z,8.23
2022-09-30T02:31:11.824Z,8.54
2022-09-30T02:33:47.289Z,8.57
2022-09-30T02:36:21.470Z,8.62
2022-09-30T02:39:03.583Z,8.59
2022-09-30T02:41:58.191Z,8.46
2022-09-30T02:44:28.846Z,4.43
2022-09-30T02:47:06.641Z,8.59
2022-09-30T02:49:49.377Z,8.43
2022-09-30T02:52:36.897Z,8.44
2022-09-30T02:55:19.418Z,8.44
2022-09-30T02:57:56.600Z,7.84
2022-09-30T03:00:26.780Z,8.35
2022-09-30T03:03:01.676Z,8.22
2022-09-30T03:05:31.684Z,8.40
2022-09-30T03:08:01.347Z,8.32
2022-09-30T03:10:36.124Z,8.38
2022-09-30T03:13:24.395Z,8.51
2022-09-30T03:16:03.288Z,8.30
2022-09-30T03:18:53.420Z,8.37
2022-09-30T03:21:44.986Z,8.53
2022-09-30T03:24:53.236Z,8.34
2022-09-30T03:27:36.611Z,8.37
2022-09-30T03:30:29.037Z,7.98
2022-09-30T03:33:04.783Z,8.25
2022-09-30T03:35:58.880Z,7.94
2022-09-30T03:38:37.526Z,8.27
2022-09-30T03:41:27.942Z,8.28
2022-09-30T03:44:18.272Z,7.42
2022-09-30T03:46:51.021Z,7.86
2022-09-30T03:49:42.452Z,8.19
2022-09-30T03:52:10.047Z,6.96
2022-09-30T03:54:53.974Z,7.78
2022-09-30T03:57:20.677Z,8.03
2022-09-30T03:59:46.867Z,8.18
2022-09-30T04:02:19.341Z,7.95
2022-09-30T04:04:49.163Z,8.09
2022-09-30T04:07:15.236Z,8.06
2022-09-30T04:09:41.451Z,8.07
2022-09-30T04:12:14.238Z,8.11
2022-09-30T04:14:43.000Z,7.83
2022-09-30T04:17:09.889Z,8.10
2022-09-30T04:19:39.299Z,7.92
2022-09-30T04:22:09.422Z,8.08
2022-09-30T04:24:35.936Z,7.64
2022-09-30T04:27:02.629Z,7.73
2022-09-30T04:29:28.810Z,7.64
2022-09-30T04:32:02.282Z,7.95
2022-09-30T04:34:28.353Z,7.85
2022-09-30T04:36:54.525Z,7.64
2022-09-30T04:39:20.793Z,7.74
2022-09-30T04:41:53.154Z,8.01
2022-09-30T04:44:20.780Z,8.13
2022-09-30T04:46:50.515Z,8.05
2022-09-30T04:49:18.788Z,8.01
2022-09-30T04:51:50.606Z,7.85
2022-09-30T04:54:20.321Z,7.61
2022-09-30T04:56:50.046Z,7.81
2022-09-30T04:59:19.654Z,8.01
2022-09-30T05:01:49.518Z,7.81
2022-09-30T05:04:19.901Z,7.86
2022-09-30T05:06:49.367Z,7.85
2022-09-30T05:09:23.885Z,7.70
2022-09-30T05:11:53.172Z,7.92
2022-09-30T05:14:22.579Z,7.73
2022-09-30T05:16:52.687Z,7.63
2022-09-30T05:19:22.628Z,7.93
2022-09-30T05:21:51.863Z,7.79
2022-09-30T05:24:21.792Z,7.53
2022-09-30T05:26:55.786Z,6.34
2022-09-30T05:29:25.089Z,7.40
2022-09-30T05:31:54.337Z,7.68
2022-09-30T05:34:24.441Z,7.64
2022-09-30T05:36:54.018Z,7.56
2022-09-30T05:39:23.880Z,7.52
2022-09-30T05:41:55.979Z,7.28
2022-09-30T05:44:23.505Z,7.53
2022-09-30T05:46:53.006Z,7.20
2022-09-30T05:49:22.453Z,6.34
2022-09-30T05:51:52.597Z,6.05
2022-09-30T05:54:26.805Z,6.81
2022-09-30T05:56:55.837Z,6.98
2022-09-30T05:59:25.546Z,7.01
2022-09-30T06:01:55.076Z,5.78
2022-09-30T06:04:24.822Z,6.68
2022-09-30T06:06:54.278Z,6.01
2022-09-30T06:09:24.015Z,6.98
2022-09-30T06:11:58.620Z,6.96
2022-09-30T06:14:28.101Z,7.31
2022-09-30T06:16:56.257Z,6.81
2022-09-30T06:19:30.285Z,6.94
2022-09-30T06:21:57.178Z,7.43
2022-09-30T06:24:26.376Z,7.18
2022-09-30T06:26:55.976Z,7.15
2022-09-30T06:29:28.022Z,6.79
2022-09-30T06:31:57.752Z,6.97
2022-09-30T06:34:27.961Z,6.95
2022-09-30T06:36:58.033Z,7.14
2022-09-30T06:39:28.821Z,7.46
2022-09-30T06:41:57.917Z,7.51
2022-09-30T06:44:27.555Z,7.48
2022-09-30T06:46:59.068Z,7.38
2022-09-30T06:49:31.058Z,7.64
2022-09-30T06:52:03.616Z,7.35
2022-09-30T06:54:29.800Z,7.31
2022-09-30T06:57:02.664Z,7.41
2022-09-30T06:59:32.475Z,7.21
2022-09-30T07:02:02.333Z,7.16
2022-09-30T07:04:32.048Z,7.51
2022-09-30T07:07:02.303Z,7.05
2022-09-30T07:09:32.055Z,7.43
2022-09-30T07:12:01.654Z,7.41
2022-09-30T07:14:36.354Z,7.17
2022-09-30T07:17:05.630Z,6.98
2022-09-30T07:19:34.485Z,5.97
2022-09-30T07:22:22.173Z,5.71
2022-09-30T07:24:48.263Z,6.49
2022-09-30T07:27:14.531Z,6.65
2022-09-30T07:30:07.184Z,7.07
2022-09-30T07:32:31.618Z,7.17
2022-09-30T07:34:57.733Z,7.34
2022-09-30T07:37:25.414Z,7.67
2022-09-30T07:39:55.716Z,7.49
2022-09-30T07:42:22.875Z,7.88
2022-09-30T07:44:51.308Z,7.83
2022-09-30T07:47:18.074Z,7.66
2022-09-30T07:49:48.088Z,6.77
2022-09-30T07:52:14.674Z,7.62
2022-09-30T07:54:45.350Z,7.20
2022-09-30T07:57:14.473Z,7.56
2022-09-30T07:59:43.907Z,7.88
2022-09-30T08:02:15.469Z,6.64
2022-09-30T08:04:44.295Z,6.79
2022-09-30T08:07:12.343Z,7.22
2022-09-30T08:09:38.655Z,6.83
2022-09-30T08:12:05.529Z,6.92
2022-09-30T08:14:35.267Z,7.43
2022-09-30T08:17:04.598Z,7.51
2022-09-30T08:19:34.583Z,7.42
2022-09-30T08:24:34.482Z,7.39
2022-09-30T08:27:09.441Z,7.84
2022-09-30T08:29:56.103Z,8.08
2022-09-30T08:32:23.631Z,7.06
2022-09-30T08:34:53.753Z,7.40
2022-09-30T08:37:20.087Z,8.17
2022-09-30T08:39:47.666Z,8.06
2022-09-30T08:42:49.172Z,8.13
2022-09-30T08:45:39.511Z,7.21
2022-09-30T08:48:19.170Z,8.64
2022-09-30T08:51:27.936Z,8.66
2022-09-30T08:54:01.720Z,8.62
2022-09-30T08:56:32.475Z,9.00
2022-09-30T08:59:38.159Z,8.57
2022-09-30T09:02:18.392Z,8.64
2022-09-30T09:04:46.181Z,8.92
2022-09-30T09:07:49.548Z,9.26
2022-09-30T09:10:26.948Z,9.34
2022-09-30T09:12:59.356Z,9.18
2022-09-30T09:15:30.294Z,9.33
2022-09-30T09:18:23.674Z,9.87
2022-09-30T09:21:08.758Z,10.36
2022-09-30T09:23:39.770Z,10.81
2022-09-30T09:26:14.614Z,10.84
2022-09-30T09:29:08.168Z,10.52
2022-09-30T09:31:39.005Z,9.77
2022-09-30T09:34:12.909Z,10.57
2022-09-30T09:37:05.405Z,10.95
2022-09-30T09:39:51.724Z,11.12
2022-09-30T09:42:55.547Z,11.83
2022-09-30T09:45:56.617Z,12.11
2022-09-30T09:48:33.357Z,12.14
2022-09-30T09:51:12.911Z,11.93
2022-09-30T09:53:57.395Z,11.57
2022-09-30T09:56:32.275Z,11.79
2022-09-30T09:59:12.570Z,12.76
2022-09-30T10:01:49.336Z,11.75
2022-09-30T10:04:25.703Z,12.08
2022-09-30T10:07:00.925Z,12.35
2022-09-30T10:09:38.389Z,12.93
2022-09-30T10:12:04.525Z,13.36
2022-09-30T10:14:32.273Z,13.34
2022-09-30T10:17:00.167Z,13.04
2022-09-30T10:19:33.170Z,13.19
2022-09-30T10:22:08.478Z,14.16
2022-09-30T10:24:38.527Z,13.06
2022-09-30T10:27:31.240Z,14.11
2022-09-30T10:29:57.368Z,14.37
2022-09-30T10:32:24.329Z,14.34
2022-09-30T10:34:59.132Z,13.96
2022-09-30T10:37:29.648Z,14.52
2022-09-30T10:40:01.658Z,14.39
2022-09-30T10:42:33.078Z,14.67
2022-09-30T10:45:09.389Z,14.64
2022-09-30T10:47:43.378Z,15.15
2022-09-30T10:50:16.395Z,15.16
2022-09-30T10:52:56.123Z,15.23
2022-09-30T10:55:31.880Z,14.66
2022-09-30T10:58:39.105Z,15.00
2022-09-30T11:01:29.790Z,15.93
2022-09-30T11:04:23.551Z,15.87
2022-09-30T11:06:53.831Z,15.82
2022-09-30T11:09:23.850Z,16.01
2022-09-30T11:11:54.713Z,15.96
2022-09-30T11:14:52.670Z,16.02
2022-09-30T11:17:26.780Z,16.05
2022-09-30T11:20:05.514Z,16.18
2022-09-30T11:23:03.692Z,16.00
2022-09-30T11:25:52.491Z,16.22
2022-09-30T11:28:33.839Z,16.41
2022-09-30T11:31:30.821Z,16.35
2022-09-30T11:34:25.352Z,16.33
2022-09-30T11:37:08.265Z,16.44
2022-09-30T11:40:12.307Z,16.60
2022-09-30T11:42:55.311Z,16.88
2022-09-30T11:45:46.853Z,16.87
2022-09-30T11:48:46.715Z,17.22
2022-09-30T11:51:27.882Z,17.04
2022-09-30T11:54:09.370Z,17.33
2022-09-30T11:56:35.512Z,17.34
2022-09-30T11:59:07.607Z,17.40
2022-09-30T12:01:45.342Z,17.40
2022-09-30T12:04:31.362Z,17.71
2022-09-30T12:07:05.456Z,18.21
2022-09-30T12:09:58.564Z,17.77
2022-09-30T12:12:24.888Z,18.08
2022-09-30T12:15:01.786Z,18.00
2022-09-30T12:17:42.383Z,17.57
2022-09-30T12:20:26.559Z,18.01
2022-09-30T12:23:17.371Z,17.42
2022-09-30T12:25:57.200Z,17.59
2022-09-30T12:29:05.659Z,17.71
2022-09-30T12:31:53.657Z,17.61
2022-09-30T12:34:26.414Z,17.50
2022-09-30T12:37:02.435Z,18.11
2022-09-30T12:39:52.767Z,17.87
2022-09-30T12:42:36.852Z,18.18
2022-09-30T12:45:57.807Z,18.52
2022-09-30T12:48:46.163Z,17.92
2022-09-30T12:51:26.812Z,16.46
2022-09-30T12:54:01.228Z,17.62
2022-09-30T12:56:29.078Z,18.18
2022-09-30T12:58:57.244Z,18.15
2022-09-30T13:01:30.039Z,18.26
2022-09-30T13:04:00.586Z,18.35
2022-09-30T13:06:46.934Z,18.65
2022-09-30T13:09:16.079Z,18.32
2022-09-30T13:11:43.911Z,18.28
2022-09-30T13:14:26.100Z,18.35
2022-09-30T13:17:07.389Z,17.91
2022-09-30T13:19:36.314Z,17.75
2022-09-30T13:22:20.310Z,18.47
2022-09-30T13:25:04.886Z,17.50
2022-09-30T13:27:36.750Z,17.21
2022-09-30T13:30:15.308Z,17.90
2022-09-30T13:32:47.469Z,17.94
2022-09-30T13:35:34.026Z,18.33
2022-09-30T13:38:13.514Z,18.20
2022-09-30T13:41:01.963Z,18.84
2022-09-30T13:44:09.435Z,18.85
2022-09-30T13:46:54.012Z,17.72
2022-09-30T13:49:38.559Z,18.14
2022-09-30T13:52:35.460Z,18.64
2022-09-30T13:55:12.399Z,18.84
2022-09-30T13:58:11.840Z,18.64
2022-09-30T14:00:53.705Z,18.67
2022-09-30T14:03:53.387Z,18.79
2022-09-30T14:06:41.401Z,17.40
2022-09-30T14:09:14.175Z,17.27
2022-09-30T14:11:43.449Z,17.57
2022-09-30T14:14:39.967Z,18.09
2022-09-30T14:17:34.350Z,17.16
2022-09-30T14:20:01.590Z,17.28
2022-09-30T14:22:35.956Z,16.51
2022-09-30T14:25:15.448Z,16.60
2022-09-30T14:27:57.516Z,16.70
2022-09-30T14:31:07.317Z,16.84
2022-09-30T14:33:38.817Z,17.18
2022-09-30T14:36:21.161Z,17.19
2022-09-30T14:38:57.383Z,16.75
2022-09-30T14:41:28.954Z,16.74
2022-09-30T14:44:04.197Z,16.67
2022-09-30T14:46:46.370Z,15.61
2022-09-30T14:49:15.848Z,16.75
2022-09-30T14:51:44.281Z,16.53
2022-09-30T14:54:17.979Z,16.29
2022-09-30T14:56:48.983Z,12.79
2022-09-30T14:59:18.158Z,16.19
2022-09-30T15:01:50.538Z,16.07
2022-09-30T15:04:52.838Z,16.13
2022-09-30T15:07:20.016Z,16.21
2022-09-30T15:09:52.811Z,16.12
2022-09-30T15:12:28.957Z,15.95
2022-09-30T15:15:00.306Z,16.03
2022-09-30T15:17:36.726Z,16.03
2022-09-30T15:20:25.000Z,16.10
2022-09-30T15:23:02.983Z,14.94
2022-09-30T15:25:33.288Z,15.98
2022-09-30T15:28:03.674Z,14.89
2022-09-30T15:30:33.954Z,15.91
2022-09-30T15:33:05.645Z,15.83
2022-09-30T15:35:35.517Z,15.63
2022-09-30T15:38:08.754Z,15.71
2022-09-30T15:40:47.773Z,13.93
2022-09-30T15:43:44.621Z,15.51
2022-09-30T15:46:27.445Z,15.85
2022-09-30T15:49:04.021Z,15.71
2022-09-30T15:51:40.718Z,16.23
2022-09-30T15:54:28.552Z,16.01
2022-09-30T15:56:55.811Z,15.88
2022-09-30T16:00:01.719Z,15.97
2022-09-30T16:02:36.364Z,16.09
2022-09-30T16:05:07.486Z,16.27
2022-09-30T16:07:37.417Z,16.29
2022-09-30T16:10:17.973Z,15.99
2022-09-30T16:12:48.806Z,15.73
2022-09-30T16:15:18.734Z,15.35
2022-09-30T16:17:49.347Z,15.69
2022-09-30T16:20:24.603Z,16.06
2022-09-30T16:22:56.009Z,16.01
2022-09-30T16:25:32.655Z,15.38
2022-09-30T16:28:12.614Z,15.89
2022-09-30T16:30:47.258Z,16.20
2022-09-30T16:33:21.582Z,15.86
2022-09-30T16:35:51.437Z,15.68
2022-09-30T16:38:22.275Z,16.80
2022-09-30T16:40:52.964Z,16.03
2022-09-30T16:43:26.187Z,16.49
2022-09-30T16:45:59.937Z,15.69
2022-09-30T16:48:30.365Z,16.91
2022-09-30T16:51:04.310Z,16.54
2022-09-30T16:53:35.375Z,16.84
2022-09-30T16:56:05.920Z,16.43
2022-09-30T16:58:42.016Z,16.80
2022-09-30T17:01:21.022Z,16.67
2022-09-30T17:03:48.012Z,15.98
2022-09-30T17:06:20.800Z,15.83
2022-09-30T17:08:52.877Z,15.55
2022-09-30T17:11:26.201Z,14.99
2022-09-30T17:13:56.968Z,15.52
2022-09-30T17:16:27.550Z,16.74
2022-09-30T17:18:57.702Z,15.08
2022-09-30T17:21:27.773Z,17.03
2022-09-30T17:24:02.364Z,16.58
2022-09-30T17:26:32.651Z,16.35
2022-09-30T17:29:21.015Z,16.02
2022-09-30T17:31:50.115Z,16.51
2022-09-30T17:34:22.167Z,16.50
2022-09-30T17:36:53.539Z,15.78
2022-09-30T17:39:28.143Z,16.69
2022-09-30T17:42:16.467Z,16.49
2022-09-30T17:44:42.984Z,15.52
2022-09-30T17:47:12.950Z,16.31
2022-09-30T17:49:39.252Z,16.81
2022-09-30T17:52:05.795Z,14.66
2022-09-30T17:54:33.865Z,15.32
2022-09-30T17:57:08.006Z,15.68
2022-09-30T17:59:37.236Z,12.04
2022-09-30T18:02:06.777Z,13.97
2022-09-30T18:04:38.124Z,16.31
2022-09-30T18:07:09.400Z,15.83
2022-09-30T18:09:37.723Z,15.82
2022-09-30T18:12:06.760Z,16.58
2022-09-30T18:14:39.181Z,16.39
2022-09-30T18:17:09.422Z,16.54
2022-09-30T18:19:39.264Z,15.72
2022-09-30T18:22:09.927Z,14.64
2022-09-30T18:24:58.307Z,16.36
2022-09-30T18:27:25.427Z,14.77
2022-09-30T18:29:51.855Z,15.42
2022-09-30T18:32:21.426Z,16.25
2022-09-30T18:34:47.850Z,14.89
2022-09-30T18:37:14.382Z,16.47
2022-09-30T18:39:44.294Z,16.26
2022-09-30T18:42:14.006Z,14.91
2022-09-30T18:44:43.821Z,15.92
2022-09-30T18:47:16.518Z,15.31
2022-09-30T18:49:44.437Z,16.31
2022-09-30T18:52:16.225Z,16.18
2022-09-30T18:54:44.037Z,16.10
2022-09-30T18:57:13.747Z,15.25
2022-09-30T18:59:46.832Z,15.98
2022-09-30T19:02:19.973Z,15.75
2022-09-30T19:04:47.893Z,15.80
2022-09-30T19:07:20.294Z,16.04
2022-09-30T19:09:46.638Z,14.64
2022-09-30T19:12:17.082Z,15.68
2022-09-30T19:14:47.686Z,15.44
2022-09-30T19:17:19.985Z,14.69
2022-09-30T19:19:50.107Z,14.00
2022-09-30T19:22:19.495Z,14.19
2022-09-30T19:24:49.391Z,14.05
2022-09-30T19:27:22.639Z,12.37
2022-09-30T19:29:52.552Z,13.92
2022-09-30T19:32:21.118Z,13.82
2022-09-30T19:35:04.783Z,13.89
2022-09-30T19:37:31.800Z,15.54
2022-09-30T19:39:58.607Z,15.66
2022-09-30T19:42:27.397Z,15.33
2022-09-30T19:44:58.935Z,16.00
2022-09-30T19:47:27.286Z,15.73
2022-09-30T19:49:58.831Z,14.75
2022-09-30T19:52:27.178Z,15.34
2022-09-30T19:55:02.634Z,14.25
2022-09-30T19:57:34.568Z,13.44
2022-09-30T20:00:05.016Z,12.93
2022-09-30T20:02:36.001Z,12.21
2022-09-30T20:05:03.930Z,12.81
2022-09-30T20:07:30.196Z,13.13
2022-09-30T20:10:00.177Z,13.08
2022-09-30T20:12:28.907Z,13.74
2022-09-30T20:15:16.878Z,15.02
2022-09-30T20:17:42.936Z,14.90
2022-09-30T20:20:31.539Z,13.91
2022-09-30T20:22:59.931Z,11.57
2022-09-30T20:25:27.056Z,11.71
2022-09-30T20:27:57.263Z,12.80
2022-09-30T20:30:29.023Z,11.85
2022-09-30T20:32:55.144Z,12.47
2022-09-30T20:35:21.586Z,12.54
2022-09-30T20:37:53.765Z,12.48
2022-09-30T20:40:20.295Z,12.38
2022-09-30T20:42:46.562Z,12.64
2022-09-30T20:45:13.430Z,14.53
2022-09-30T20:47:44.998Z,13.40
2022-09-30T20:50:12.152Z,12.81
2022-09-30T20:52:38.367Z,12.48
2022-09-30T20:55:05.503Z,12.33
2022-09-30T20:57:34.995Z,12.24
2022-09-30T21:00:06.173Z,12.22
2022-09-30T21:02:35.955Z,12.23
2022-09-30T21:05:07.766Z,12.87
2022-09-30T21:07:37.694Z,12.43
2022-09-30T21:10:07.299Z,12.09
2022-09-30T21:12:36.595Z,11.83
2022-09-30T21:15:09.463Z,12.09
2022-09-30T21:17:39.679Z,13.01
2022-09-30T21:20:08.387Z,13.14
2022-09-30T21:22:38.083Z,13.59
2022-09-30T21:25:07.791Z,12.86
2022-09-30T21:27:37.020Z,12.34
2022-09-30T21:30:07.287Z,12.25
2022-09-30T21:32:44.715Z,10.51
2022-09-30T21:35:13.027Z,12.27
2022-09-30T21:37:41.546Z,11.92
2022-09-30T21:40:11.439Z,10.77
2022-09-30T21:42:41.286Z,13.29
2022-09-30T21:45:11.585Z,13.87
2022-09-30T21:47:41.213Z,13.02
2022-09-30T21:50:13.014Z,12.48
2022-09-30T21:52:42.750Z,10.67
2022-09-30T21:55:14.235Z,11.83
2022-09-30T21:57:45.105Z,11.88
2022-09-30T22:00:16.530Z,11.82
2022-09-30T22:02:46.878Z,13.09
2022-09-30T22:05:19.772Z,12.43
2022-09-30T22:07:46.952Z,12.17
2022-09-30T22:10:16.315Z,11.32
2022-09-30T22:12:45.717Z,11.53
2022-09-30T22:15:15.582Z,11.67
2022-09-30T22:17:50.898Z,11.59
2022-09-30T22:20:19.768Z,9.97
2022-09-30T22:22:49.033Z,11.26
2022-09-30T22:25:19.762Z,11.01
2022-09-30T22:27:48.606Z,11.13
2022-09-30T22:30:18.789Z,11.40
2022-09-30T22:33:07.853Z,11.45
2022-09-30T22:35:57.270Z,11.33
2022-09-30T22:38:23.868Z,11.24
2022-09-30T22:40:58.567Z,11.57
2022-09-30T22:43:28.553Z,11.47
2022-09-30T22:46:07.007Z,10.01
2022-09-30T22:48:37.577Z,11.41
2022-09-30T22:51:13.856Z,11.44
2022-09-30T22:53:43.898Z,11.01
2022-09-30T22:56:10.789Z,11.24
2022-09-30T22:58:40.571Z,11.36
2022-09-30T23:01:11.066Z,10.86
2022-09-30T23:03:43.746Z,10.98
2022-09-30T23:06:15.060Z,11.21
2022-09-30T23:08:46.515Z,11.07
2022-09-30T23:11:17.211Z,11.60
2022-09-30T23:13:45.807Z,11.67
2022-09-30T23:16:16.201Z,11.88
2022-09-30T23:18:46.244Z,11.54
2022-09-30T23:21:17.672Z,11.59
2022-09-30T23:23:51.978Z,11.62
2022-09-30T23:26:24.647Z,11.65
2022-09-30T23:29:02.812Z,11.61
2022-09-30T23:31:33.886Z,11.51
2022-09-30T23:34:04.102Z,11.42
2022-09-30T23:36:36.243Z,11.49
2022-09-30T23:39:14.748Z,11.52
2022-09-30T23:41:48.350Z,11.42
2022-09-30T23:44:19.335Z,11.33
2022-09-30T23:47:12.923Z,10.80
2022-09-30T23:49:45.219Z,11.22
2022-09-30T23:52:14.985Z,11.44
2022-09-30T23:54:45.112Z,9.97
2022-09-30T23:57:15.463Z,11.11
2022-09-30T23:59:41.617Z,11.16
